sensor_id;sensor_type;location;lat;lon;timestamp;pressure;altitude;pressure_sealevel;temperature;humidity
38612;BME280;24368;52.156;20.788;2024-02-15T00:03:42;101187.02;;;5.37;70.91
38612;BME280;24368;52.156;20.788;2024-02-15T00:08:44;101185.55;;;5.36;70.56
38612;BME280;24368;52.156;20.788;2024-02-15T00:13:46;101184.27;;;5.33;70.68
38612;BME280;24368;52.156;20.788;2024-02-15T00:18:48;101186.35;;;5.32;70.94
38612;BME280;24368;52.156;20.788;2024-02-15T00:23:51;101180.38;;;5.33;70.86
38612;BME280;24368;52.156;20.788;2024-02-15T00:28:56;101183.88;;;5.33;71.15
38612;BME280;24368;52.156;20.788;2024-02-15T00:33:58;101186.64;;;5.34;70.84
38612;BME280;24368;52.156;20.788;2024-02-15T00:39:01;101188.09;;;5.32;71.02
38612;BME280;24368;52.156;20.788;2024-02-15T00:44:05;101187.58;;;5.30;70.95
38612;BME280;24368;52.156;20.788;2024-02-15T00:49:07;101187.59;;;5.28;71.12
38612;BME280;24368;52.156;20.788;2024-02-15T00:54:09;101188.60;;;5.29;71.41
38612;BME280;24368;52.156;20.788;2024-02-15T00:59:12;101186.36;;;5.28;71.25
38612;BME280;24368;52.156;20.788;2024-02-15T01:04:13;101180.52;;;5.28;71.54
38612;BME280;24368;52.156;20.788;2024-02-15T01:09:16;101185.27;;;5.25;71.79
38612;BME280;24368;52.156;20.788;2024-02-15T01:14:18;101174.02;;;5.26;71.72
38612;BME280;24368;52.156;20.788;2024-02-15T01:19:20;101173.90;;;5.23;71.91
38612;BME280;24368;52.156;20.788;2024-02-15T01:24:21;101174.56;;;5.22;72.03
38612;BME280;24368;52.156;20.788;2024-02-15T01:42:07;101169.94;;;5.27;72.22
38612;BME280;24368;52.156;20.788;2024-02-15T01:47:09;101165.44;;;5.23;72.22
38612;BME280;24368;52.156;20.788;2024-02-15T01:52:12;101159.34;;;5.22;72.57
38612;BME280;24368;52.156;20.788;2024-02-15T01:57:16;101155.40;;;5.17;72.49
38612;BME280;24368;52.156;20.788;2024-02-15T02:02:20;101151.40;;;5.17;72.91
38612;BME280;24368;52.156;20.788;2024-02-15T02:07:24;101152.27;;;5.19;73.28
38612;BME280;24368;52.156;20.788;2024-02-15T02:12:26;101151.81;;;5.18;73.41
38612;BME280;24368;52.156;20.788;2024-02-15T02:17:29;101157.44;;;5.15;73.62
38612;BME280;24368;52.156;20.788;2024-02-15T02:22:31;101157.14;;;5.14;73.88
38612;BME280;24368;52.156;20.788;2024-02-15T02:27:35;101155.42;;;5.17;73.98
38612;BME280;24368;52.156;20.788;2024-02-15T02:43:51;101148.48;;;5.21;73.92
38612;BME280;24368;52.156;20.788;2024-02-15T02:48:54;101146.25;;;5.17;74.15
38612;BME280;24368;52.156;20.788;2024-02-15T02:57:38;101150.50;;;5.18;74.56
38612;BME280;24368;52.156;20.788;2024-02-15T03:02:45;101150.38;;;5.16;74.74
38612;BME280;24368;52.156;20.788;2024-02-15T03:07:47;101151.04;;;5.17;74.51
38612;BME280;24368;52.156;20.788;2024-02-15T03:12:50;101149.45;;;5.18;74.54
38612;BME280;24368;52.156;20.788;2024-02-15T03:17:53;101153.52;;;5.17;74.72
38612;BME280;24368;52.156;20.788;2024-02-15T03:22:56;101152.00;;;5.16;75.03
38612;BME280;24368;52.156;20.788;2024-02-15T03:27:59;101150.27;;;5.16;74.98
38612;BME280;24368;52.156;20.788;2024-02-15T03:33:05;101151.90;;;5.13;75.35
38612;BME280;24368;52.156;20.788;2024-02-15T03:38:07;101147.79;;;5.14;75.44
38612;BME280;24368;52.156;20.788;2024-02-15T03:43:09;101146.52;;;5.16;75.57
38612;BME280;24368;52.156;20.788;2024-02-15T03:48:11;101144.55;;;5.16;75.62
38612;BME280;24368;52.156;20.788;2024-02-15T03:53:14;101145.40;;;5.17;75.72
38612;BME280;24368;52.156;20.788;2024-02-15T03:58:17;101147.60;;;5.16;75.75
38612;BME280;24368;52.156;20.788;2024-02-15T04:03:20;101146.54;;;5.14;75.99
38612;BME280;24368;52.156;20.788;2024-02-15T04:08:24;101150.16;;;5.11;76.52
38612;BME280;24368;52.156;20.788;2024-02-15T04:13:27;101144.54;;;5.09;76.56
38612;BME280;24368;52.156;20.788;2024-02-15T04:18:31;101142.45;;;5.05;76.95
38612;BME280;24368;52.156;20.788;2024-02-15T04:23:34;101144.89;;;5.02;77.44
38612;BME280;24368;52.156;20.788;2024-02-15T04:28:36;101147.84;;;5.01;77.59
38612;BME280;24368;52.156;20.788;2024-02-15T04:33:38;101145.38;;;5.01;77.93
38612;BME280;24368;52.156;20.788;2024-02-15T04:38:41;101142.20;;;5.03;78.21
38612;BME280;24368;52.156;20.788;2024-02-15T04:43:43;101142.34;;;5.05;78.55
38612;BME280;24368;52.156;20.788;2024-02-15T04:48:48;101143.80;;;5.08;78.41
38612;BME280;24368;52.156;20.788;2024-02-15T04:53:53;101147.23;;;5.11;78.58
38612;BME280;24368;52.156;20.788;2024-02-15T04:58:59;101152.73;;;5.09;78.60
38612;BME280;24368;52.156;20.788;2024-02-15T05:04:02;101152.34;;;5.13;78.53
38612;BME280;24368;52.156;20.788;2024-02-15T05:09:08;101156.98;;;5.14;78.77
38612;BME280;24368;52.156;20.788;2024-02-15T05:14:15;101156.53;;;5.10;78.98
38612;BME280;24368;52.156;20.788;2024-02-15T05:19:25;101160.57;;;5.07;79.34
38612;BME280;24368;52.156;20.788;2024-02-15T05:24:27;101161.48;;;5.01;80.09
38612;BME280;24368;52.156;20.788;2024-02-15T05:29:31;101164.74;;;4.97;81.43
38612;BME280;24368;52.156;20.788;2024-02-15T05:34:38;101164.41;;;4.87;84.26
38612;BME280;24368;52.156;20.788;2024-02-15T05:39:41;101170.23;;;4.70;86.73
38612;BME280;24368;52.156;20.788;2024-02-15T05:44:43;101170.69;;;4.69;89.27
38612;BME280;24368;52.156;20.788;2024-02-15T05:49:45;101173.89;;;4.67;90.81
38612;BME280;24368;52.156;20.788;2024-02-15T05:54:49;101172.80;;;4.63;91.99
38612;BME280;24368;52.156;20.788;2024-02-15T05:59:53;101169.71;;;4.62;93.24
38612;BME280;24368;52.156;20.788;2024-02-15T06:04:55;101170.04;;;4.59;94.49
38612;BME280;24368;52.156;20.788;2024-02-15T06:10:03;101175.52;;;4.63;95.35
38612;BME280;24368;52.156;20.788;2024-02-15T06:15:06;101177.77;;;4.65;95.70
38612;BME280;24368;52.156;20.788;2024-02-15T06:20:16;101184.81;;;4.66;96.37
38612;BME280;24368;52.156;20.788;2024-02-15T06:25:21;101182.48;;;4.69;96.38
38612;BME280;24368;52.156;20.788;2024-02-15T06:30:24;101188.16;;;4.66;96.98
38612;BME280;24368;52.156;20.788;2024-02-15T06:45:40;101197.73;;;4.60;100.00
38612;BME280;24368;52.156;20.788;2024-02-15T06:50:48;101201.15;;;4.56;100.00
38612;BME280;24368;52.156;20.788;2024-02-15T06:55:51;101202.02;;;4.51;100.00
38612;BME280;24368;52.156;20.788;2024-02-15T07:00:54;101200.69;;;4.50;100.00
38612;BME280;24368;52.156;20.788;2024-02-15T07:05:56;101207.58;;;4.50;100.00
38612;BME280;24368;52.156;20.788;2024-02-15T07:11:01;101207.23;;;4.54;100.00
38612;BME280;24368;52.156;20.788;2024-02-15T07:16:08;101211.52;;;4.53;100.00
38612;BME280;24368;52.156;20.788;2024-02-15T07:21:10;101212.56;;;4.53;100.00
38612;BME280;24368;52.156;20.788;2024-02-15T07:26:15;101215.58;;;4.59;100.00
38612;BME280;24368;52.156;20.788;2024-02-15T07:31:19;101213.52;;;4.58;100.00
38612;BME280;24368;52.156;20.788;2024-02-15T07:36:23;101217.60;;;4.67;100.00
38612;BME280;24368;52.156;20.788;2024-02-15T07:41:26;101211.71;;;4.71;100.00
38612;BME280;24368;52.156;20.788;2024-02-15T07:46:30;101211.54;;;4.73;100.00
38612;BME280;24368;52.156;20.788;2024-02-15T07:51:32;101211.33;;;4.71;100.00
38612;BME280;24368;52.156;20.788;2024-02-15T07:56:34;101211.40;;;4.70;100.00
38612;BME280;24368;52.156;20.788;2024-02-15T08:01:40;101208.90;;;4.69;100.00
38612;BME280;24368;52.156;20.788;2024-02-15T08:06:42;101203.38;;;4.71;100.00
38612;BME280;24368;52.156;20.788;2024-02-15T08:11:45;101208.65;;;4.82;100.00
38612;BME280;24368;52.156;20.788;2024-02-15T08:16:47;101201.15;;;4.91;100.00
38612;BME280;24368;52.156;20.788;2024-02-15T08:21:51;101198.85;;;4.98;100.00
38612;BME280;24368;52.156;20.788;2024-02-15T08:26:53;101208.86;;;5.14;100.00
38612;BME280;24368;52.156;20.788;2024-02-15T08:31:58;101210.27;;;5.16;100.00
38612;BME280;24368;52.156;20.788;2024-02-15T08:37:00;101216.80;;;5.20;100.00
38612;BME280;24368;52.156;20.788;2024-02-15T08:42:04;101223.27;;;5.27;100.00
38612;BME280;24368;52.156;20.788;2024-02-15T08:47:07;101223.80;;;5.26;100.00
38612;BME280;24368;52.156;20.788;2024-02-15T08:52:10;101225.25;;;5.29;100.00
38612;BME280;24368;52.156;20.788;2024-02-15T08:57:12;101231.36;;;5.42;100.00
38612;BME280;24368;52.156;20.788;2024-02-15T09:02:15;101234.02;;;5.42;100.00
38612;BME280;24368;52.156;20.788;2024-02-15T09:07:20;101235.34;;;5.51;100.00
38612;BME280;24368;52.156;20.788;2024-02-15T09:12:23;101235.88;;;5.58;100.00
38612;BME280;24368;52.156;20.788;2024-02-15T09:17:27;101238.23;;;5.66;100.00
38612;BME280;24368;52.156;20.788;2024-02-15T09:32:30;101238.64;;;5.95;100.00
38612;BME280;24368;52.156;20.788;2024-02-15T09:37:36;101246.67;;;5.98;100.00
38612;BME280;24368;52.156;20.788;2024-02-15T09:42:42;101247.91;;;5.98;100.00
38612;BME280;24368;52.156;20.788;2024-02-15T09:47:47;101246.16;;;6.03;100.00
38612;BME280;24368;52.156;20.788;2024-02-15T09:52:53;101245.93;;;6.02;100.00
38612;BME280;24368;52.156;20.788;2024-02-15T09:58:03;101243.33;;;6.03;100.00
38612;BME280;24368;52.156;20.788;2024-02-15T10:03:07;101242.91;;;6.07;100.00
38612;BME280;24368;52.156;20.788;2024-02-15T10:08:10;101237.31;;;6.17;100.00
38612;BME280;24368;52.156;20.788;2024-02-15T10:13:13;101236.03;;;6.26;100.00
38612;BME280;24368;52.156;20.788;2024-02-15T10:18:15;101235.10;;;6.33;100.00
38612;BME280;24368;52.156;20.788;2024-02-15T10:23:17;101234.65;;;6.31;100.00
38612;BME280;24368;52.156;20.788;2024-02-15T10:37:39;101213.40;;;6.55;100.00
38612;BME280;24368;52.156;20.788;2024-02-15T10:51:54;101209.35;;;6.58;100.00
38612;BME280;24368;52.156;20.788;2024-02-15T10:57:05;101212.91;;;6.54;100.00
38612;BME280;24368;52.156;20.788;2024-02-15T11:07:26;101211.50;;;6.46;100.00
38612;BME280;24368;52.156;20.788;2024-02-15T11:12:29;101208.40;;;6.47;100.00
38612;BME280;24368;52.156;20.788;2024-02-15T11:22:56;101204.48;;;6.73;100.00
38612;BME280;24368;52.156;20.788;2024-02-15T11:33:31;101187.16;;;7.19;100.00
38612;BME280;24368;52.156;20.788;2024-02-15T11:38:34;101178.92;;;7.57;100.00
38612;BME280;24368;52.156;20.788;2024-02-15T11:48:53;101185.42;;;7.78;100.00
38612;BME280;24368;52.156;20.788;2024-02-15T11:54:05;101181.73;;;7.62;100.00
38612;BME280;24368;52.156;20.788;2024-02-15T11:59:09;101183.41;;;7.61;100.00
38612;BME280;24368;52.156;20.788;2024-02-15T12:04:20;101183.98;;;7.56;100.00
38612;BME280;24368;52.156;20.788;2024-02-15T12:18:36;101173.14;;;7.69;100.00
38612;BME280;24368;52.156;20.788;2024-02-15T12:23:45;101175.35;;;7.76;100.00
38612;BME280;24368;52.156;20.788;2024-02-15T12:28:51;101182.95;;;7.96;100.00
38612;BME280;24368;52.156;20.788;2024-02-15T12:34:03;101175.94;;;8.26;100.00
38612;BME280;24368;52.156;20.788;2024-02-15T12:39:08;101171.60;;;8.93;99.93
38612;BME280;24368;52.156;20.788;2024-02-15T12:44:18;101171.56;;;8.94;98.74
38612;BME280;24368;52.156;20.788;2024-02-15T12:54:27;101164.70;;;8.52;100.00
38612;BME280;24368;52.156;20.788;2024-02-15T12:59:31;101159.05;;;8.61;100.00
38612;BME280;24368;52.156;20.788;2024-02-15T13:04:33;101151.73;;;9.17;99.76
38612;BME280;24368;52.156;20.788;2024-02-15T13:09:37;101148.95;;;9.52;97.93
38612;BME280;24368;52.156;20.788;2024-02-15T13:14:40;101146.06;;;9.38;97.71
38612;BME280;24368;52.156;20.788;2024-02-15T13:19:48;101134.27;;;9.97;96.64
38612;BME280;24368;52.156;20.788;2024-02-15T13:24:51;101135.88;;;9.88;95.58
38612;BME280;24368;52.156;20.788;2024-02-15T13:29:54;101137.41;;;9.66;96.42
38612;BME280;24368;52.156;20.788;2024-02-15T13:34:56;101136.64;;;9.61;96.88
38612;BME280;24368;52.156;20.788;2024-02-15T13:40:02;101138.83;;;9.36;97.24
38612;BME280;24368;52.156;20.788;2024-02-15T13:45:06;101132.34;;;9.35;98.03
38612;BME280;24368;52.156;20.788;2024-02-15T13:54:02;101138.73;;;9.53;97.51
38612;BME280;24368;52.156;20.788;2024-02-15T13:59:06;101138.46;;;9.54;97.19
38612;BME280;24368;52.156;20.788;2024-02-15T14:04:08;101134.16;;;9.41;97.34
38612;BME280;24368;52.156;20.788;2024-02-15T14:09:11;101134.31;;;9.35;97.26
38612;BME280;24368;52.156;20.788;2024-02-15T14:14:14;101138.95;;;9.34;97.45
38612;BME280;24368;52.156;20.788;2024-02-15T14:19:16;101141.55;;;9.25;97.62
38612;BME280;24368;52.156;20.788;2024-02-15T14:24:19;101145.35;;;9.24;97.93
38612;BME280;24368;52.156;20.788;2024-02-15T14:29:24;101150.64;;;9.23;98.15
38612;BME280;24368;52.156;20.788;2024-02-15T14:34:28;101152.46;;;9.24;98.25
38612;BME280;24368;52.156;20.788;2024-02-15T14:39:32;101154.22;;;9.23;98.26
38612;BME280;24368;52.156;20.788;2024-02-15T14:44:35;101156.77;;;9.19;98.30
38612;BME280;24368;52.156;20.788;2024-02-15T14:49:38;101149.27;;;9.19;98.41
38612;BME280;24368;52.156;20.788;2024-02-15T14:54:42;101151.23;;;9.13;98.52
38612;BME280;24368;52.156;20.788;2024-02-15T14:59:44;101153.02;;;9.12;98.94
38612;BME280;24368;52.156;20.788;2024-02-15T15:04:48;101148.49;;;9.14;98.73
38612;BME280;24368;52.156;20.788;2024-02-15T15:10:20;101148.99;;;9.13;98.37
38612;BME280;24368;52.156;20.788;2024-02-15T15:15:45;101146.10;;;9.09;98.35
38612;BME280;24368;52.156;20.788;2024-02-15T15:20:50;101143.87;;;9.03;98.21
38612;BME280;24368;52.156;20.788;2024-02-15T15:40:10;101148.45;;;8.89;97.69
38612;BME280;24368;52.156;20.788;2024-02-15T15:45:19;101148.48;;;8.84;97.20
38612;BME280;24368;52.156;20.788;2024-02-15T15:50:22;101153.91;;;8.78;96.84
38612;BME280;24368;52.156;20.788;2024-02-15T15:55:25;101155.96;;;8.72;96.13
38612;BME280;24368;52.156;20.788;2024-02-15T16:00:29;101167.20;;;8.66;95.69
38612;BME280;24368;52.156;20.788;2024-02-15T16:05:34;101174.59;;;8.62;95.39
38612;BME280;24368;52.156;20.788;2024-02-15T16:10:37;101177.95;;;8.58;95.11
38612;BME280;24368;52.156;20.788;2024-02-15T16:15:40;101177.00;;;8.55;94.79
38612;BME280;24368;52.156;20.788;2024-02-15T16:20:45;101179.17;;;8.52;94.62
38612;BME280;24368;52.156;20.788;2024-02-15T16:25:48;101177.67;;;8.49;94.57
38612;BME280;24368;52.156;20.788;2024-02-15T16:30:50;101179.95;;;8.45;94.51
38612;BME280;24368;52.156;20.788;2024-02-15T16:35:52;101177.89;;;8.43;94.49
38612;BME280;24368;52.156;20.788;2024-02-15T16:40:55;101180.81;;;8.41;94.57
38612;BME280;24368;52.156;20.788;2024-02-15T16:45:57;101188.60;;;8.38;94.62
38612;BME280;24368;52.156;20.788;2024-02-15T16:51:00;101198.53;;;8.37;94.51
38612;BME280;24368;52.156;20.788;2024-02-15T16:56:04;101211.66;;;8.36;94.50
38612;BME280;24368;52.156;20.788;2024-02-15T17:01:08;101215.55;;;8.35;94.33
38612;BME280;24368;52.156;20.788;2024-02-15T17:06:11;101218.98;;;8.35;94.41
38612;BME280;24368;52.156;20.788;2024-02-15T17:11:13;101217.13;;;8.29;94.37
38612;BME280;24368;52.156;20.788;2024-02-15T17:16:16;101222.27;;;8.24;94.46
38612;BME280;24368;52.156;20.788;2024-02-15T17:21:18;101221.13;;;8.23;94.26
38612;BME280;24368;52.156;20.788;2024-02-15T17:26:21;101222.70;;;8.27;94.07
38612;BME280;24368;52.156;20.788;2024-02-15T17:31:25;101223.84;;;8.25;93.93
38612;BME280;24368;52.156;20.788;2024-02-15T17:36:28;101227.91;;;8.22;93.99
38612;BME280;24368;52.156;20.788;2024-02-15T17:41:31;101227.70;;;8.25;94.03
38612;BME280;24368;52.156;20.788;2024-02-15T17:46:34;101229.54;;;8.22;93.94
38612;BME280;24368;52.156;20.788;2024-02-15T17:51:37;101238.47;;;8.18;93.95
38612;BME280;24368;52.156;20.788;2024-02-15T17:56:41;101239.68;;;8.17;93.87
38612;BME280;24368;52.156;20.788;2024-02-15T18:01:48;101235.24;;;8.14;94.03
38612;BME280;24368;52.156;20.788;2024-02-15T18:06:51;101232.16;;;8.17;93.94
38612;BME280;24368;52.156;20.788;2024-02-15T18:11:54;101233.54;;;8.15;93.88
38612;BME280;24368;52.156;20.788;2024-02-15T18:16:56;101233.95;;;8.13;94.27
38612;BME280;24368;52.156;20.788;2024-02-15T18:21:59;101229.15;;;8.11;94.08
38612;BME280;24368;52.156;20.788;2024-02-15T18:27:03;101224.33;;;8.13;94.05
38612;BME280;24368;52.156;20.788;2024-02-15T18:32:06;101228.35;;;8.10;93.98
38612;BME280;24368;52.156;20.788;2024-02-15T18:46:58;101231.52;;;8.00;94.50
38612;BME280;24368;52.156;20.788;2024-02-15T18:52:01;101230.95;;;7.94;94.74
38612;BME280;24368;52.156;20.788;2024-02-15T18:57:03;101229.67;;;7.97;94.64
38612;BME280;24368;52.156;20.788;2024-02-15T19:02:07;101234.75;;;7.95;94.75
38612;BME280;24368;52.156;20.788;2024-02-15T19:07:10;101232.96;;;7.89;95.08
38612;BME280;24368;52.156;20.788;2024-02-15T19:12:12;101233.61;;;7.86;95.30
38612;BME280;24368;52.156;20.788;2024-02-15T19:17:14;101226.91;;;7.84;95.61
38612;BME280;24368;52.156;20.788;2024-02-15T19:22:18;101226.84;;;7.85;95.74
38612;BME280;24368;52.156;20.788;2024-02-15T19:27:22;101228.61;;;7.83;95.96
38612;BME280;24368;52.156;20.788;2024-02-15T19:32:24;101228.85;;;7.80;96.13
38612;BME280;24368;52.156;20.788;2024-02-15T19:37:26;101226.36;;;7.78;96.57
38612;BME280;24368;52.156;20.788;2024-02-15T19:42:33;101223.93;;;7.76;96.88
38612;BME280;24368;52.156;20.788;2024-02-15T19:47:35;101217.66;;;7.73;97.24
38612;BME280;24368;52.156;20.788;2024-02-15T19:52:38;101219.27;;;7.75;97.53
38612;BME280;24368;52.156;20.788;2024-02-15T19:57:40;101221.73;;;7.77;97.35
38612;BME280;24368;52.156;20.788;2024-02-15T20:02:43;101227.61;;;7.76;97.66
38612;BME280;24368;52.156;20.788;2024-02-15T20:07:46;101223.52;;;7.78;97.70
38612;BME280;24368;52.156;20.788;2024-02-15T20:12:48;101223.19;;;7.79;97.53
38612;BME280;24368;52.156;20.788;2024-02-15T20:17:50;101222.76;;;7.80;97.46
38612;BME280;24368;52.156;20.788;2024-02-15T20:22:52;101225.21;;;7.82;97.30
38612;BME280;24368;52.156;20.788;2024-02-15T20:27:55;101227.02;;;7.81;97.35
38612;BME280;24368;52.156;20.788;2024-02-15T20:32:58;101223.68;;;7.80;97.34
38612;BME280;24368;52.156;20.788;2024-02-15T20:38:03;101221.39;;;7.78;97.47
38612;BME280;24368;52.156;20.788;2024-02-15T20:43:07;101215.69;;;7.76;97.57
38612;BME280;24368;52.156;20.788;2024-02-15T20:48:09;101215.66;;;7.75;97.78
38612;BME280;24368;52.156;20.788;2024-02-15T20:53:12;101215.73;;;7.73;97.81
38612;BME280;24368;52.156;20.788;2024-02-15T20:58:14;101214.58;;;7.70;98.01
38612;BME280;24368;52.156;20.788;2024-02-15T21:03:16;101216.64;;;7.70;97.95
38612;BME280;24368;52.156;20.788;2024-02-15T21:08:19;101208.30;;;7.68;97.78
38612;BME280;24368;52.156;20.788;2024-02-15T21:13:24;101207.35;;;7.65;97.74
38612;BME280;24368;52.156;20.788;2024-02-15T21:18:26;101203.89;;;7.63;98.04
38612;BME280;24368;52.156;20.788;2024-02-15T21:23:30;101202.24;;;7.63;97.91
38612;BME280;24368;52.156;20.788;2024-02-15T21:28:35;101192.16;;;7.66;97.64
38612;BME280;24368;52.156;20.788;2024-02-15T21:33:45;101194.69;;;7.70;97.55
38612;BME280;24368;52.156;20.788;2024-02-15T21:45:19;101198.90;;;7.69;97.39
38612;BME280;24368;52.156;20.788;2024-02-15T21:50:22;101205.17;;;7.64;97.55
38612;BME280;24368;52.156;20.788;2024-02-15T21:55:24;101201.29;;;7.61;97.78
38612;BME280;24368;52.156;20.788;2024-02-15T22:00:27;101204.64;;;7.59;97.88
38612;BME280;24368;52.156;20.788;2024-02-15T22:05:29;101206.97;;;7.56;97.73
38612;BME280;24368;52.156;20.788;2024-02-15T22:10:32;101211.23;;;7.56;97.93
38612;BME280;24368;52.156;20.788;2024-02-15T22:15:34;101210.02;;;7.57;97.77
38612;BME280;24368;52.156;20.788;2024-02-15T22:20:37;101214.23;;;7.58;97.64
38612;BME280;24368;52.156;20.788;2024-02-15T22:25:39;101218.34;;;7.58;97.60
38612;BME280;24368;52.156;20.788;2024-02-15T22:30:41;101221.27;;;7.59;97.58
38612;BME280;24368;52.156;20.788;2024-02-15T22:35:44;101219.71;;;7.60;97.35
38612;BME280;24368;52.156;20.788;2024-02-15T22:40:47;101222.54;;;7.58;97.26
38612;BME280;24368;52.156;20.788;2024-02-15T22:45:50;101228.45;;;7.58;97.18
38612;BME280;24368;52.156;20.788;2024-02-15T22:50:52;101237.52;;;7.55;97.13
38612;BME280;24368;52.156;20.788;2024-02-15T22:55:54;101239.52;;;7.56;97.16
38612;BME280;24368;52.156;20.788;2024-02-15T23:01:00;101238.17;;;7.57;97.21
38612;BME280;24368;52.156;20.788;2024-02-15T23:06:02;101240.13;;;7.59;96.94
38612;BME280;24368;52.156;20.788;2024-02-15T23:11:06;101240.41;;;7.59;96.82
38612;BME280;24368;52.156;20.788;2024-02-15T23:16:08;101241.56;;;7.60;96.57
38612;BME280;24368;52.156;20.788;2024-02-15T23:21:10;101240.59;;;7.59;96.56
38612;BME280;24368;52.156;20.788;2024-02-15T23:26:13;101243.98;;;7.61;96.25
38612;BME280;24368;52.156;20.788;2024-02-15T23:31:16;101242.65;;;7.62;96.17
38612;BME280;24368;52.156;20.788;2024-02-15T23:36:19;101241.48;;;7.62;95.81
38612;BME280;24368;52.156;20.788;2024-02-15T23:41:41;101242.67;;;7.64;95.39
38612;BME280;24368;52.156;20.788;2024-02-15T23:46:43;101246.88;;;7.65;95.26
38612;BME280;24368;52.156;20.788;2024-02-15T23:51:47;101246.98;;;7.66;95.04
38612;BME280;24368;52.156;20.788;2024-02-15T23:56:51;101249.75;;;7.68;94.50
